sensor_id;sensor_type;location;lat;lon;timestamp;P1;durP1;ratioP1;P2;durP2;ratioP2
78581;SDS011;67878;46.242;5.974;2024-03-06T00:01:29;1.85;;;1.42;;
78581;SDS011;67878;46.242;5.974;2024-03-06T00:03:55;2.72;;;2.00;;
78581;SDS011;67878;46.242;5.974;2024-03-06T00:06:20;2.53;;;1.50;;
78581;SDS011;67878;46.242;5.974;2024-03-06T00:08:45;2.88;;;1.60;;
78581;SDS011;67878;46.242;5.974;2024-03-06T00:11:11;2.35;;;1.70;;
78581;SDS011;67878;46.242;5.974;2024-03-06T00:13:36;2.22;;;1.63;;
78581;SDS011;67878;46.242;5.974;2024-03-06T00:16:01;1.90;;;1.52;;
78581;SDS011;67878;46.242;5.974;2024-03-06T00:18:27;2.28;;;1.67;;
78581;SDS011;67878;46.242;5.974;2024-03-06T00:20:53;1.75;;;1.42;;
78581;SDS011;67878;46.242;5.974;2024-03-06T00:23:18;6.10;;;1.58;;
78581;SDS011;67878;46.242;5.974;2024-03-06T00:25:44;3.42;;;1.40;;
78581;SDS011;67878;46.242;5.974;2024-03-06T00:28:10;5.35;;;1.52;;
78581;SDS011;67878;46.242;5.974;2024-03-06T00:30:35;5.93;;;1.60;;
78581;SDS011;67878;46.242;5.974;2024-03-06T00:33:01;2.58;;;1.33;;
78581;SDS011;67878;46.242;5.974;2024-03-06T00:35:26;6.10;;;1.55;;
78581;SDS011;67878;46.242;5.974;2024-03-06T00:37:53;4.50;;;1.52;;
78581;SDS011;67878;46.242;5.974;2024-03-06T00:40:19;3.63;;;1.50;;
78581;SDS011;67878;46.242;5.974;2024-03-06T00:42:44;3.60;;;1.33;;
78581;SDS011;67878;46.242;5.974;2024-03-06T00:45:10;2.35;;;1.17;;
78581;SDS011;67878;46.242;5.974;2024-03-06T00:47:36;2.75;;;1.60;;
78581;SDS011;67878;46.242;5.974;2024-03-06T00:50:01;3.33;;;1.50;;
78581;SDS011;67878;46.242;5.974;2024-03-06T00:52:27;4.22;;;1.55;;
78581;SDS011;67878;46.242;5.974;2024-03-06T00:54:52;3.38;;;1.23;;
78581;SDS011;67878;46.242;5.974;2024-03-06T00:57:18;1.92;;;1.42;;
78581;SDS011;67878;46.242;5.974;2024-03-06T00:59:43;1.70;;;1.27;;
78581;SDS011;67878;46.242;5.974;2024-03-06T01:02:08;1.80;;;1.30;;
78581;SDS011;67878;46.242;5.974;2024-03-06T01:04:34;3.00;;;1.40;;
78581;SDS011;67878;46.242;5.974;2024-03-06T01:06:59;2.35;;;1.42;;
78581;SDS011;67878;46.242;5.974;2024-03-06T01:09:24;2.67;;;1.25;;
78581;SDS011;67878;46.242;5.974;2024-03-06T01:11:50;2.22;;;1.30;;
78581;SDS011;67878;46.242;5.974;2024-03-06T01:14:15;2.72;;;1.25;;
78581;SDS011;67878;46.242;5.974;2024-03-06T01:16:41;1.55;;;1.10;;
78581;SDS011;67878;46.242;5.974;2024-03-06T01:19:07;1.77;;;1.17;;
78581;SDS011;67878;46.242;5.974;2024-03-06T01:21:32;1.40;;;1.17;;
78581;SDS011;67878;46.242;5.974;2024-03-06T01:23:59;2.30;;;1.40;;
78581;SDS011;67878;46.242;5.974;2024-03-06T01:26:25;1.52;;;1.23;;
78581;SDS011;67878;46.242;5.974;2024-03-06T01:28:51;2.42;;;1.02;;
78581;SDS011;67878;46.242;5.974;2024-03-06T01:31:16;2.55;;;1.10;;
78581;SDS011;67878;46.242;5.974;2024-03-06T01:33:42;1.90;;;1.23;;
78581;SDS011;67878;46.242;5.974;2024-03-06T01:36:07;1.77;;;1.20;;
78581;SDS011;67878;46.242;5.974;2024-03-06T01:38:33;1.83;;;1.40;;
78581;SDS011;67878;46.242;5.974;2024-03-06T01:40:58;3.03;;;1.10;;
78581;SDS011;67878;46.242;5.974;2024-03-06T01:43:24;1.73;;;1.10;;
78581;SDS011;67878;46.242;5.974;2024-03-06T01:45:51;1.92;;;1.05;;
78581;SDS011;67878;46.242;5.974;2024-03-06T01:48:23;1.70;;;1.05;;
78581;SDS011;67878;46.242;5.974;2024-03-06T01:50:53;2.28;;;1.17;;
78581;SDS011;67878;46.242;5.974;2024-03-06T01:53:21;1.90;;;1.27;;
78581;SDS011;67878;46.242;5.974;2024-03-06T01:55:49;1.45;;;1.10;;
78581;SDS011;67878;46.242;5.974;2024-03-06T01:58:15;1.95;;;0.90;;
78581;SDS011;67878;46.242;5.974;2024-03-06T02:00:42;1.38;;;1.10;;
78581;SDS011;67878;46.242;5.974;2024-03-06T02:03:08;1.38;;;1.15;;
78581;SDS011;67878;46.242;5.974;2024-03-06T02:05:33;2.15;;;1.02;;
78581;SDS011;67878;46.242;5.974;2024-03-06T02:07:59;1.45;;;1.00;;
78581;SDS011;67878;46.242;5.974;2024-03-06T02:10:26;2.33;;;1.10;;
78581;SDS011;67878;46.242;5.974;2024-03-06T02:12:53;2.80;;;1.02;;
78581;SDS011;67878;46.242;5.974;2024-03-06T02:15:19;2.13;;;1.05;;
78581;SDS011;67878;46.242;5.974;2024-03-06T02:17:45;1.40;;;1.10;;
78581;SDS011;67878;46.242;5.974;2024-03-06T02:20:11;2.05;;;1.15;;
78581;SDS011;67878;46.242;5.974;2024-03-06T02:22:39;1.73;;;1.00;;
78581;SDS011;67878;46.242;5.974;2024-03-06T02:25:07;1.80;;;0.90;;
78581;SDS011;67878;46.242;5.974;2024-03-06T02:27:33;1.27;;;0.90;;
78581;SDS011;67878;46.242;5.974;2024-03-06T02:29:58;2.08;;;1.00;;
78581;SDS011;67878;46.242;5.974;2024-03-06T02:32:24;1.33;;;0.90;;
78581;SDS011;67878;46.242;5.974;2024-03-06T02:34:50;2.70;;;1.00;;
78581;SDS011;67878;46.242;5.974;2024-03-06T02:37:15;1.58;;;1.15;;
78581;SDS011;67878;46.242;5.974;2024-03-06T02:39:41;3.47;;;1.15;;
78581;SDS011;67878;46.242;5.974;2024-03-06T02:42:06;1.60;;;0.90;;
78581;SDS011;67878;46.242;5.974;2024-03-06T02:44:32;1.35;;;1.00;;
78581;SDS011;67878;46.242;5.974;2024-03-06T02:46:58;1.70;;;0.80;;
78581;SDS011;67878;46.242;5.974;2024-03-06T02:49:24;1.60;;;0.80;;
78581;SDS011;67878;46.242;5.974;2024-03-06T02:51:49;1.48;;;1.08;;
78581;SDS011;67878;46.242;5.974;2024-03-06T02:54:15;1.05;;;0.80;;
78581;SDS011;67878;46.242;5.974;2024-03-06T02:56:41;1.83;;;1.08;;
78581;SDS011;67878;46.242;5.974;2024-03-06T02:59:06;2.65;;;1.02;;
78581;SDS011;67878;46.242;5.974;2024-03-06T03:01:32;1.40;;;0.90;;
78581;SDS011;67878;46.242;5.974;2024-03-06T03:03:57;1.63;;;1.10;;
78581;SDS011;67878;46.242;5.974;2024-03-06T03:06:23;1.50;;;0.80;;
78581;SDS011;67878;46.242;5.974;2024-03-06T03:08:51;0.90;;;0.70;;
78581;SDS011;67878;46.242;5.974;2024-03-06T03:11:17;1.75;;;1.00;;
78581;SDS011;67878;46.242;5.974;2024-03-06T03:13:42;1.10;;;0.90;;
78581;SDS011;67878;46.242;5.974;2024-03-06T03:16:17;2.85;;;0.82;;
78581;SDS011;67878;46.242;5.974;2024-03-06T03:18:43;1.30;;;0.80;;
78581;SDS011;67878;46.242;5.974;2024-03-06T03:21:09;1.48;;;0.80;;
78581;SDS011;67878;46.242;5.974;2024-03-06T03:23:37;1.15;;;0.90;;
78581;SDS011;67878;46.242;5.974;2024-03-06T03:26:04;1.20;;;0.88;;
78581;SDS011;67878;46.242;5.974;2024-03-06T03:28:30;1.52;;;0.95;;
78581;SDS011;67878;46.242;5.974;2024-03-06T03:30:55;0.98;;;0.73;;
78581;SDS011;67878;46.242;5.974;2024-03-06T03:33:21;1.33;;;0.90;;
78581;SDS011;67878;46.242;5.974;2024-03-06T03:35:47;1.77;;;1.00;;
78581;SDS011;67878;46.242;5.974;2024-03-06T03:38:13;1.55;;;0.88;;
78581;SDS011;67878;46.242;5.974;2024-03-06T03:40:38;1.50;;;0.80;;
78581;SDS011;67878;46.242;5.974;2024-03-06T03:43:04;1.02;;;0.85;;
78581;SDS011;67878;46.242;5.974;2024-03-06T03:45:32;1.55;;;0.82;;
78581;SDS011;67878;46.242;5.974;2024-03-06T03:48:03;1.55;;;0.90;;
78581;SDS011;67878;46.242;5.974;2024-03-06T03:50:29;1.35;;;0.90;;
78581;SDS011;67878;46.242;5.974;2024-03-06T03:52:55;1.20;;;0.70;;
78581;SDS011;67878;46.242;5.974;2024-03-06T03:55:23;1.23;;;0.80;;
78581;SDS011;67878;46.242;5.974;2024-03-06T03:57:49;0.90;;;0.77;;
78581;SDS011;67878;46.242;5.974;2024-03-06T04:00:15;1.10;;;0.63;;
78581;SDS011;67878;46.242;5.974;2024-03-06T04:02:41;1.15;;;0.80;;
78581;SDS011;67878;46.242;5.974;2024-03-06T04:05:07;0.73;;;0.73;;
78581;SDS011;67878;46.242;5.974;2024-03-06T04:07:33;1.15;;;0.70;;
78581;SDS011;67878;46.242;5.974;2024-03-06T04:09:58;0.95;;;0.80;;
78581;SDS011;67878;46.242;5.974;2024-03-06T04:12:23;1.55;;;0.75;;
78581;SDS011;67878;46.242;5.974;2024-03-06T04:14:50;0.85;;;0.73;;
78581;SDS011;67878;46.242;5.974;2024-03-06T04:17:15;1.45;;;0.65;;
78581;SDS011;67878;46.242;5.974;2024-03-06T04:19:40;0.90;;;0.80;;
78581;SDS011;67878;46.242;5.974;2024-03-06T04:22:06;0.85;;;0.63;;
78581;SDS011;67878;46.242;5.974;2024-03-06T04:24:31;1.27;;;0.90;;
78581;SDS011;67878;46.242;5.974;2024-03-06T04:26:56;0.85;;;0.73;;
78581;SDS011;67878;46.242;5.974;2024-03-06T04:29:22;1.50;;;0.85;;
78581;SDS011;67878;46.242;5.974;2024-03-06T04:31:47;1.52;;;0.90;;
78581;SDS011;67878;46.242;5.974;2024-03-06T04:34:12;1.27;;;0.90;;
78581;SDS011;67878;46.242;5.974;2024-03-06T04:36:38;1.20;;;0.90;;
78581;SDS011;67878;46.242;5.974;2024-03-06T04:39:03;1.00;;;0.77;;
78581;SDS011;67878;46.242;5.974;2024-03-06T04:41:33;1.50;;;0.75;;
78581;SDS011;67878;46.242;5.974;2024-03-06T04:43:58;1.95;;;0.70;;
78581;SDS011;67878;46.242;5.974;2024-03-06T04:46:25;1.98;;;0.80;;
78581;SDS011;67878;46.242;5.974;2024-03-06T04:48:51;1.27;;;0.70;;
78581;SDS011;67878;46.242;5.974;2024-03-06T04:51:17;1.00;;;0.80;;
78581;SDS011;67878;46.242;5.974;2024-03-06T04:53:44;1.00;;;0.70;;
78581;SDS011;67878;46.242;5.974;2024-03-06T04:56:10;1.80;;;0.77;;
78581;SDS011;67878;46.242;5.974;2024-03-06T04:58:35;1.65;;;0.98;;
78581;SDS011;67878;46.242;5.974;2024-03-06T05:01:01;1.40;;;0.57;;
78581;SDS011;67878;46.242;5.974;2024-03-06T05:03:29;0.98;;;0.70;;
78581;SDS011;67878;46.242;5.974;2024-03-06T05:05:55;1.05;;;0.70;;
78581;SDS011;67878;46.242;5.974;2024-03-06T05:08:20;2.08;;;0.85;;
78581;SDS011;67878;46.242;5.974;2024-03-06T05:10:46;0.88;;;0.60;;
78581;SDS011;67878;46.242;5.974;2024-03-06T05:13:11;2.10;;;0.60;;
78581;SDS011;67878;46.242;5.974;2024-03-06T05:15:38;8.07;;;0.98;;
78581;SDS011;67878;46.242;5.974;2024-03-06T05:18:04;1.40;;;0.77;;
78581;SDS011;67878;46.242;5.974;2024-03-06T05:20:30;2.38;;;0.68;;
78581;SDS011;67878;46.242;5.974;2024-03-06T05:22:58;1.25;;;0.70;;
78581;SDS011;67878;46.242;5.974;2024-03-06T05:25:24;1.33;;;0.75;;
78581;SDS011;67878;46.242;5.974;2024-03-06T05:27:49;1.20;;;0.82;;
78581;SDS011;67878;46.242;5.974;2024-03-06T05:30:15;1.30;;;0.80;;
78581;SDS011;67878;46.242;5.974;2024-03-06T05:32:40;0.98;;;0.70;;
78581;SDS011;67878;46.242;5.974;2024-03-06T05:35:06;1.05;;;0.60;;
78581;SDS011;67878;46.242;5.974;2024-03-06T05:37:35;0.82;;;0.63;;
78581;SDS011;67878;46.242;5.974;2024-03-06T05:40:00;1.23;;;0.60;;
78581;SDS011;67878;46.242;5.974;2024-03-06T05:42:29;1.52;;;0.63;;
78581;SDS011;67878;46.242;5.974;2024-03-06T05:44:56;1.15;;;0.60;;
78581;SDS011;67878;46.242;5.974;2024-03-06T05:47:25;0.85;;;0.50;;
78581;SDS011;67878;46.242;5.974;2024-03-06T05:49:51;3.78;;;0.75;;
78581;SDS011;67878;46.242;5.974;2024-03-06T05:52:17;1.23;;;0.70;;
78581;SDS011;67878;46.242;5.974;2024-03-06T05:54:43;2.25;;;0.88;;
78581;SDS011;67878;46.242;5.974;2024-03-06T05:57:08;3.17;;;0.80;;
78581;SDS011;67878;46.242;5.974;2024-03-06T05:59:34;1.00;;;0.70;;
78581;SDS011;67878;46.242;5.974;2024-03-06T06:01:59;1.30;;;0.50;;
78581;SDS011;67878;46.242;5.974;2024-03-06T06:04:25;0.70;;;0.52;;
78581;SDS011;67878;46.242;5.974;2024-03-06T06:06:50;1.48;;;0.70;;
78581;SDS011;67878;46.242;5.974;2024-03-06T06:09:16;1.63;;;0.90;;
78581;SDS011;67878;46.242;5.974;2024-03-06T06:11:42;1.67;;;0.90;;
78581;SDS011;67878;46.242;5.974;2024-03-06T06:14:08;1.83;;;0.63;;
78581;SDS011;67878;46.242;5.974;2024-03-06T06:16:34;1.00;;;0.63;;
78581;SDS011;67878;46.242;5.974;2024-03-06T06:19:00;1.58;;;0.60;;
78581;SDS011;67878;46.242;5.974;2024-03-06T06:21:26;1.30;;;0.57;;
78581;SDS011;67878;46.242;5.974;2024-03-06T06:23:51;4.20;;;0.90;;
78581;SDS011;67878;46.242;5.974;2024-03-06T06:26:17;1.63;;;1.05;;
78581;SDS011;67878;46.242;5.974;2024-03-06T06:28:43;3.33;;;0.80;;
78581;SDS011;67878;46.242;5.974;2024-03-06T06:31:10;2.28;;;0.80;;
78581;SDS011;67878;46.242;5.974;2024-03-06T06:33:35;1.67;;;0.68;;
78581;SDS011;67878;46.242;5.974;2024-03-06T06:36:01;2.60;;;1.00;;
78581;SDS011;67878;46.242;5.974;2024-03-06T06:38:26;4.50;;;1.05;;
78581;SDS011;67878;46.242;5.974;2024-03-06T06:40:52;3.53;;;0.80;;
78581;SDS011;67878;46.242;5.974;2024-03-06T06:43:17;4.22;;;1.10;;
78581;SDS011;67878;46.242;5.974;2024-03-06T06:45:43;2.40;;;0.73;;
78581;SDS011;67878;46.242;5.974;2024-03-06T06:48:08;2.80;;;0.80;;
78581;SDS011;67878;46.242;5.974;2024-03-06T06:53:02;1.25;;;1.02;;
78581;SDS011;67878;46.242;5.974;2024-03-06T06:55:27;1.77;;;0.85;;
78581;SDS011;67878;46.242;5.974;2024-03-06T06:57:53;3.42;;;1.17;;
78581;SDS011;67878;46.242;5.974;2024-03-06T07:00:18;2.65;;;0.90;;
78581;SDS011;67878;46.242;5.974;2024-03-06T07:02:46;2.35;;;0.95;;
78581;SDS011;67878;46.242;5.974;2024-03-06T07:05:14;2.83;;;0.93;;
78581;SDS011;67878;46.242;5.974;2024-03-06T07:07:44;3.00;;;1.05;;
78581;SDS011;67878;46.242;5.974;2024-03-06T07:10:10;2.38;;;0.90;;
78581;SDS011;67878;46.242;5.974;2024-03-06T07:12:37;3.60;;;0.98;;
78581;SDS011;67878;46.242;5.974;2024-03-06T07:15:06;1.42;;;0.93;;
78581;SDS011;67878;46.242;5.974;2024-03-06T07:17:31;2.22;;;1.20;;
78581;SDS011;67878;46.242;5.974;2024-03-06T07:19:57;1.90;;;1.00;;
78581;SDS011;67878;46.242;5.974;2024-03-06T07:22:23;5.53;;;1.70;;
78581;SDS011;67878;46.242;5.974;2024-03-06T07:24:48;4.47;;;1.10;;
78581;SDS011;67878;46.242;5.974;2024-03-06T07:27:14;5.90;;;1.30;;
78581;SDS011;67878;46.242;5.974;2024-03-06T07:29:39;2.45;;;1.10;;
78581;SDS011;67878;46.242;5.974;2024-03-06T07:32:05;2.35;;;1.08;;
78581;SDS011;67878;46.242;5.974;2024-03-06T07:34:31;1.35;;;0.90;;
78581;SDS011;67878;46.242;5.974;2024-03-06T07:36:57;1.35;;;0.95;;
78581;SDS011;67878;46.242;5.974;2024-03-06T07:39:25;1.75;;;1.10;;
78581;SDS011;67878;46.242;5.974;2024-03-06T07:41:50;6.40;;;1.30;;
78581;SDS011;67878;46.242;5.974;2024-03-06T07:44:16;3.70;;;1.10;;
78581;SDS011;67878;46.242;5.974;2024-03-06T07:46:41;4.82;;;1.05;;
78581;SDS011;67878;46.242;5.974;2024-03-06T07:49:07;9.18;;;1.77;;
78581;SDS011;67878;46.242;5.974;2024-03-06T07:51:32;3.20;;;1.15;;
78581;SDS011;67878;46.242;5.974;2024-03-06T07:53:59;7.40;;;1.33;;
78581;SDS011;67878;46.242;5.974;2024-03-06T07:56:25;1.67;;;1.05;;
78581;SDS011;67878;46.242;5.974;2024-03-06T07:58:51;2.22;;;0.90;;
78581;SDS011;67878;46.242;5.974;2024-03-06T08:01:17;2.72;;;1.10;;
78581;SDS011;67878;46.242;5.974;2024-03-06T08:03:42;2.35;;;1.25;;
78581;SDS011;67878;46.242;5.974;2024-03-06T08:06:09;2.42;;;1.05;;
78581;SDS011;67878;46.242;5.974;2024-03-06T08:08:35;2.13;;;1.15;;
78581;SDS011;67878;46.242;5.974;2024-03-06T08:11:01;2.33;;;1.08;;
78581;SDS011;67878;46.242;5.974;2024-03-06T08:13:27;2.05;;;1.00;;
78581;SDS011;67878;46.242;5.974;2024-03-06T08:15:53;2.78;;;1.35;;
78581;SDS011;67878;46.242;5.974;2024-03-06T08:18:18;2.13;;;1.23;;
78581;SDS011;67878;46.242;5.974;2024-03-06T08:20:44;3.30;;;1.25;;
78581;SDS011;67878;46.242;5.974;2024-03-06T08:23:09;1.33;;;1.00;;
78581;SDS011;67878;46.242;5.974;2024-03-06T08:25:37;2.13;;;1.20;;
78581;SDS011;67878;46.242;5.974;2024-03-06T08:28:03;2.38;;;1.00;;
78581;SDS011;67878;46.242;5.974;2024-03-06T08:30:30;2.28;;;1.08;;
78581;SDS011;67878;46.242;5.974;2024-03-06T08:32:56;1.77;;;1.10;;
78581;SDS011;67878;46.242;5.974;2024-03-06T08:35:21;1.30;;;0.90;;
78581;SDS011;67878;46.242;5.974;2024-03-06T08:37:48;2.25;;;1.20;;
78581;SDS011;67878;46.242;5.974;2024-03-06T08:40:14;1.95;;;1.05;;
78581;SDS011;67878;46.242;5.974;2024-03-06T08:42:40;2.10;;;1.00;;
78581;SDS011;67878;46.242;5.974;2024-03-06T08:45:07;1.90;;;1.10;;
78581;SDS011;67878;46.242;5.974;2024-03-06T08:47:33;1.83;;;1.10;;
78581;SDS011;67878;46.242;5.974;2024-03-06T08:49:59;1.35;;;0.88;;
78581;SDS011;67878;46.242;5.974;2024-03-06T08:52:24;1.77;;;1.10;;
78581;SDS011;67878;46.242;5.974;2024-03-06T08:54:49;2.22;;;0.95;;
78581;SDS011;67878;46.242;5.974;2024-03-06T08:57:15;1.60;;;0.90;;
78581;SDS011;67878;46.242;5.974;2024-03-06T08:59:42;1.88;;;1.20;;
78581;SDS011;67878;46.242;5.974;2024-03-06T09:02:11;2.58;;;1.25;;
78581;SDS011;67878;46.242;5.974;2024-03-06T09:07:06;2.30;;;1.33;;
78581;SDS011;67878;46.242;5.974;2024-03-06T09:09:31;1.60;;;0.98;;
78581;SDS011;67878;46.242;5.974;2024-03-06T09:11:59;1.20;;;0.95;;
78581;SDS011;67878;46.242;5.974;2024-03-06T09:14:32;1.85;;;1.10;;
78581;SDS011;67878;46.242;5.974;2024-03-06T09:16:58;1.77;;;1.00;;
78581;SDS011;67878;46.242;5.974;2024-03-06T09:19:25;2.45;;;1.23;;
78581;SDS011;67878;46.242;5.974;2024-03-06T09:21:51;1.90;;;1.17;;
78581;SDS011;67878;46.242;5.974;2024-03-06T09:24:16;1.60;;;1.08;;
78581;SDS011;67878;46.242;5.974;2024-03-06T09:26:43;2.00;;;1.13;;
78581;SDS011;67878;46.242;5.974;2024-03-06T09:29:08;1.75;;;0.98;;
78581;SDS011;67878;46.242;5.974;2024-03-06T09:31:35;1.42;;;1.00;;
78581;SDS011;67878;46.242;5.974;2024-03-06T09:34:00;1.42;;;0.93;;
78581;SDS011;67878;46.242;5.974;2024-03-06T09:36:27;2.85;;;1.17;;
78581;SDS011;67878;46.242;5.974;2024-03-06T09:38:52;1.55;;;0.80;;
78581;SDS011;67878;46.242;5.974;2024-03-06T09:41:18;1.98;;;0.90;;
78581;SDS011;67878;46.242;5.974;2024-03-06T09:43:44;1.13;;;1.02;;
78581;SDS011;67878;46.242;5.974;2024-03-06T09:46:10;2.30;;;1.00;;
78581;SDS011;67878;46.242;5.974;2024-03-06T09:48:35;1.48;;;1.00;;
78581;SDS011;67878;46.242;5.974;2024-03-06T09:51:07;0.85;;;0.70;;
78581;SDS011;67878;46.242;5.974;2024-03-06T09:53:32;1.17;;;0.80;;
78581;SDS011;67878;46.242;5.974;2024-03-06T09:55:58;2.08;;;0.82;;
78581;SDS011;67878;46.242;5.974;2024-03-06T09:58:25;1.42;;;0.95;;
78581;SDS011;67878;46.242;5.974;2024-03-06T10:00:50;1.17;;;0.90;;
78581;SDS011;67878;46.242;5.974;2024-03-06T10:03:18;1.58;;;0.98;;
78581;SDS011;67878;46.242;5.974;2024-03-06T10:05:43;1.15;;;0.75;;
78581;SDS011;67878;46.242;5.974;2024-03-06T10:08:09;1.10;;;0.88;;
78581;SDS011;67878;46.242;5.974;2024-03-06T10:10:35;0.98;;;0.70;;
78581;SDS011;67878;46.242;5.974;2024-03-06T10:13:01;1.45;;;0.80;;
78581;SDS011;67878;46.242;5.974;2024-03-06T10:15:27;1.20;;;0.90;;
78581;SDS011;67878;46.242;5.974;2024-03-06T10:20:40;1.10;;;0.88;;
78581;SDS011;67878;46.242;5.974;2024-03-06T10:23:09;1.80;;;0.93;;
78581;SDS011;67878;46.242;5.974;2024-03-06T10:25:35;1.20;;;0.85;;
78581;SDS011;67878;46.242;5.974;2024-03-06T10:28:10;2.05;;;0.80;;
78581;SDS011;67878;46.242;5.974;2024-03-06T10:30:37;1.20;;;0.70;;
78581;SDS011;67878;46.242;5.974;2024-03-06T10:33:07;2.28;;;0.95;;
78581;SDS011;67878;46.242;5.974;2024-03-06T10:35:33;1.00;;;0.70;;
78581;SDS011;67878;46.242;5.974;2024-03-06T10:38:00;1.40;;;0.82;;
78581;SDS011;67878;46.242;5.974;2024-03-06T10:40:26;1.50;;;0.90;;
78581;SDS011;67878;46.242;5.974;2024-03-06T10:42:54;1.02;;;0.82;;
78581;SDS011;67878;46.242;5.974;2024-03-06T10:45:20;1.20;;;0.52;;
78581;SDS011;67878;46.242;5.974;2024-03-06T10:47:52;1.05;;;0.70;;
78581;SDS011;67878;46.242;5.974;2024-03-06T10:50:18;2.00;;;0.85;;
78581;SDS011;67878;46.242;5.974;2024-03-06T10:52:46;1.63;;;0.90;;
78581;SDS011;67878;46.242;5.974;2024-03-06T10:55:12;0.90;;;0.70;;
78581;SDS011;67878;46.242;5.974;2024-03-06T10:57:38;1.10;;;0.77;;
78581;SDS011;67878;46.242;5.974;2024-03-06T11:00:07;1.35;;;0.60;;
78581;SDS011;67878;46.242;5.974;2024-03-06T11:02:33;0.50;;;0.50;;
78581;SDS011;67878;46.242;5.974;2024-03-06T11:05:00;0.93;;;0.60;;
78581;SDS011;67878;46.242;5.974;2024-03-06T11:07:30;1.08;;;0.60;;
78581;SDS011;67878;46.242;5.974;2024-03-06T11:09:57;1.60;;;0.70;;
78581;SDS011;67878;46.242;5.974;2024-03-06T11:12:36;2.22;;;0.80;;
78581;SDS011;67878;46.242;5.974;2024-03-06T11:15:10;0.88;;;0.60;;
78581;SDS011;67878;46.242;5.974;2024-03-06T11:17:36;1.17;;;0.70;;
78581;SDS011;67878;46.242;5.974;2024-03-06T11:28:11;0.75;;;0.63;;
78581;SDS011;67878;46.242;5.974;2024-03-06T11:33:18;1.10;;;0.73;;
78581;SDS011;67878;46.242;5.974;2024-03-06T11:38:51;0.73;;;0.50;;
78581;SDS011;67878;46.242;5.974;2024-03-06T11:41:27;2.17;;;0.70;;
78581;SDS011;67878;46.242;5.974;2024-03-06T11:43:55;0.60;;;0.60;;
78581;SDS011;67878;46.242;5.974;2024-03-06T11:46:44;0.75;;;0.50;;
78581;SDS011;67878;46.242;5.974;2024-03-06T11:51:45;2.00;;;0.60;;
78581;SDS011;67878;46.242;5.974;2024-03-06T11:56:40;1.20;;;0.90;;
78581;SDS011;67878;46.242;5.974;2024-03-06T11:59:05;1.70;;;0.88;;
78581;SDS011;67878;46.242;5.974;2024-03-06T12:01:35;1.15;;;0.70;;
78581;SDS011;67878;46.242;5.974;2024-03-06T12:04:01;0.73;;;0.40;;
78581;SDS011;67878;46.242;5.974;2024-03-06T12:06:27;0.68;;;0.60;;
78581;SDS011;67878;46.242;5.974;2024-03-06T12:08:53;1.38;;;0.85;;
78581;SDS011;67878;46.242;5.974;2024-03-06T12:11:19;0.63;;;0.50;;
78581;SDS011;67878;46.242;5.974;2024-03-06T12:13:45;0.68;;;0.50;;
78581;SDS011;67878;46.242;5.974;2024-03-06T12:16:14;0.60;;;0.30;;
78581;SDS011;67878;46.242;5.974;2024-03-06T12:18:39;0.82;;;0.50;;
78581;SDS011;67878;46.242;5.974;2024-03-06T12:21:05;0.70;;;0.40;;
78581;SDS011;67878;46.242;5.974;2024-03-06T12:23:30;0.55;;;0.40;;
78581;SDS011;67878;46.242;5.974;2024-03-06T12:26:05;1.10;;;0.52;;
78581;SDS011;67878;46.242;5.974;2024-03-06T12:28:34;1.02;;;0.50;;
78581;SDS011;67878;46.242;5.974;2024-03-06T12:31:01;0.77;;;0.52;;
78581;SDS011;67878;46.242;5.974;2024-03-06T12:33:30;0.40;;;0.40;;
78581;SDS011;67878;46.242;5.974;2024-03-06T12:36:03;0.90;;;0.68;;
78581;SDS011;67878;46.242;5.974;2024-03-06T12:38:30;0.90;;;0.50;;
78581;SDS011;67878;46.242;5.974;2024-03-06T12:40:55;0.85;;;0.60;;
78581;SDS011;67878;46.242;5.974;2024-03-06T12:43:21;0.50;;;0.40;;
78581;SDS011;67878;46.242;5.974;2024-03-06T12:45:46;0.60;;;0.43;;
78581;SDS011;67878;46.242;5.974;2024-03-06T12:48:12;0.93;;;0.55;;
78581;SDS011;67878;46.242;5.974;2024-03-06T12:50:38;0.55;;;0.50;;
78581;SDS011;67878;46.242;5.974;2024-03-06T12:53:03;1.05;;;0.60;;
78581;SDS011;67878;46.242;5.974;2024-03-06T12:55:30;0.65;;;0.60;;
78581;SDS011;67878;46.242;5.974;2024-03-06T12:57:57;0.95;;;0.52;;
78581;SDS011;67878;46.242;5.974;2024-03-06T13:00:22;0.80;;;0.40;;
78581;SDS011;67878;46.242;5.974;2024-03-06T13:02:49;0.70;;;0.50;;
78581;SDS011;67878;46.242;5.974;2024-03-06T13:05:18;0.93;;;0.45;;
78581;SDS011;67878;46.242;5.974;2024-03-06T13:07:44;1.20;;;0.55;;
78581;SDS011;67878;46.242;5.974;2024-03-06T13:10:10;0.95;;;0.40;;
78581;SDS011;67878;46.242;5.974;2024-03-06T13:12:39;0.80;;;0.35;;
78581;SDS011;67878;46.242;5.974;2024-03-06T13:15:04;0.95;;;0.50;;
78581;SDS011;67878;46.242;5.974;2024-03-06T13:17:32;1.15;;;0.60;;
78581;SDS011;67878;46.242;5.974;2024-03-06T13:19:58;0.88;;;0.40;;
78581;SDS011;67878;46.242;5.974;2024-03-06T13:22:23;0.82;;;0.43;;
78581;SDS011;67878;46.242;5.974;2024-03-06T13:24:48;1.13;;;0.60;;
78581;SDS011;67878;46.242;5.974;2024-03-06T13:27:14;0.47;;;0.40;;
78581;SDS011;67878;46.242;5.974;2024-03-06T13:29:39;0.82;;;0.57;;
78581;SDS011;67878;46.242;5.974;2024-03-06T13:32:06;1.48;;;0.65;;
78581;SDS011;67878;46.242;5.974;2024-03-06T13:34:32;0.60;;;0.40;;
78581;SDS011;67878;46.242;5.974;2024-03-06T13:36:58;0.52;;;0.35;;
78581;SDS011;67878;46.242;5.974;2024-03-06T13:39:24;1.10;;;0.60;;
78581;SDS011;67878;46.242;5.974;2024-03-06T13:41:49;0.70;;;0.40;;
78581;SDS011;67878;46.242;5.974;2024-03-06T13:44:15;0.57;;;0.45;;
78581;SDS011;67878;46.242;5.974;2024-03-06T13:46:40;0.30;;;0.22;;
78581;SDS011;67878;46.242;5.974;2024-03-06T13:49:06;0.68;;;0.40;;
78581;SDS011;67878;46.242;5.974;2024-03-06T13:51:31;1.00;;;0.40;;
78581;SDS011;67878;46.242;5.974;2024-03-06T13:53:56;1.75;;;0.57;;
78581;SDS011;67878;46.242;5.974;2024-03-06T13:56:22;0.60;;;0.40;;
78581;SDS011;67878;46.242;5.974;2024-03-06T13:58:47;0.60;;;0.32;;
78581;SDS011;67878;46.242;5.974;2024-03-06T14:01:12;1.20;;;0.60;;
78581;SDS011;67878;46.242;5.974;2024-03-06T14:03:38;0.70;;;0.55;;
78581;SDS011;67878;46.242;5.974;2024-03-06T14:06:04;0.68;;;0.40;;
78581;SDS011;67878;46.242;5.974;2024-03-06T14:08:32;0.90;;;0.52;;
78581;SDS011;67878;46.242;5.974;2024-03-06T14:10:57;0.30;;;0.30;;
78581;SDS011;67878;46.242;5.974;2024-03-06T14:13:23;1.05;;;0.50;;
78581;SDS011;67878;46.242;5.974;2024-03-06T14:15:48;0.90;;;0.40;;
78581;SDS011;67878;46.242;5.974;2024-03-06T14:18:14;0.80;;;0.40;;
78581;SDS011;67878;46.242;5.974;2024-03-06T14:20:40;1.63;;;0.55;;
78581;SDS011;67878;46.242;5.974;2024-03-06T14:23:05;1.13;;;0.50;;
78581;SDS011;67878;46.242;5.974;2024-03-06T14:25:31;1.98;;;0.60;;
78581;SDS011;67878;46.242;5.974;2024-03-06T14:28:01;0.52;;;0.40;;
78581;SDS011;67878;46.242;5.974;2024-03-06T14:30:26;1.08;;;0.55;;
78581;SDS011;67878;46.242;5.974;2024-03-06T14:32:52;1.25;;;0.50;;
78581;SDS011;67878;46.242;5.974;2024-03-06T14:35:18;1.05;;;0.40;;
78581;SDS011;67878;46.242;5.974;2024-03-06T14:37:43;0.80;;;0.50;;
78581;SDS011;67878;46.242;5.974;2024-03-06T14:40:09;1.35;;;0.52;;
78581;SDS011;67878;46.242;5.974;2024-03-06T14:42:35;0.80;;;0.50;;
78581;SDS011;67878;46.242;5.974;2024-03-06T14:45:01;0.95;;;0.60;;
78581;SDS011;67878;46.242;5.974;2024-03-06T14:47:30;0.75;;;0.45;;
78581;SDS011;67878;46.242;5.974;2024-03-06T14:49:56;0.80;;;0.52;;
78581;SDS011;67878;46.242;5.974;2024-03-06T14:52:22;0.60;;;0.30;;
78581;SDS011;67878;46.242;5.974;2024-03-06T14:54:48;0.70;;;0.35;;
78581;SDS011;67878;46.242;5.974;2024-03-06T14:57:13;0.30;;;0.20;;
78581;SDS011;67878;46.242;5.974;2024-03-06T14:59:39;0.50;;;0.30;;
78581;SDS011;67878;46.242;5.974;2024-03-06T15:02:04;0.50;;;0.40;;
78581;SDS011;67878;46.242;5.974;2024-03-06T15:04:31;0.50;;;0.40;;
78581;SDS011;67878;46.242;5.974;2024-03-06T15:06:56;1.02;;;0.35;;
78581;SDS011;67878;46.242;5.974;2024-03-06T15:09:22;0.50;;;0.50;;